Pagina principale
METAR-TAF:

METAR-TAF

Aeroporti :

Aeroporto Internazionale O.R. Tambo

Johannesburg, Sudafrica

latitudine: 26-08S, longitudine: 028-14E, altezza: 1694 m

Osservazione

Il bollettino è stato emesso 12 minuti fa, alle 23:00 UTC
Vento 6 kt da sud/sud-ovest
Temperature 8°C
Umidità 53%
Pressione 1026 hPa
Visibilità 10 km o più
nessuna nube inferiore a 1500 m e nessun cumulonembo

METAR: FAOR 292300Z 20006KT CAVOK 08/M01 Q1026 NOSIG

Ora: 01:12 (23:12 UTC)

Previsione

Il bollettino è stato emesso 7 ore e 12 minuti fa, alle 16:00 UTC
Previsione valida dal 29 alle 18 UTC al 30 alle 24 UTC
Vento 9 kt da sud
Visibilità 10 km o più
nessuna nube inferiore a 1500 m e nessun cumulonembo
Evoluzione graduale
dal 29 alle 22 UTC al 29 alle 24 UTC
Vento 3 kt da direzioni variabili

TAF: FAOR 291600Z 2918/3024 19009KT CAVOK TX20/3013Z TN06/3004Z BECMG 2922/2924 VRB03KT

Osservazioni e previsioni meteorologiche di più di 4000 aeroporti (messaggi METAR e TAF).

Le stazioni disponibili sono rappresentate dai dischi gialli e rossi sulla carta.

Puntare il mouse per vedere il nome della stazione.

Clicca sopra per visualizzare le osservazioni e previsioni meteorologiche.

Per cambiare la mappa : fare clic sui pulsanti verdi con una croce nera per ingrandire, il pulsante verde con un trattino per diminuire, o sulla freccia verde per le mappe adiacenti.


METAR-TAF: